Time;durP1;ratioP1;P1;durP2;ratioP2;P2;SDS_P1;SDS_P2;PMS_P1;PMS_P2;Temp;Humidity;BMP_temperature;BMP_pressure;BME280_temperature;BME280_humidity;BME280_pressure;Samples;Min_cycle;Max_cycle;Signal;HPM_P1;HPM_P2
2022/11/03 00:02:19;;;;;;;20.70;13.60;;;;;;;8.85;68.14;101140.05;111281;1242;21914;-79
2022/11/03 00:04:47;;;;;;;20.60;13.30;;;;;;;8.84;68.27;101143.20;111267;1242;24317;-77
2022/11/03 00:07:22;;;;;;;19.60;13.00;;;;;;;8.82;68.37;101145.84;111191;1242;23573;-77
2022/11/03 00:09:49;;;;;;;19.70;11.70;;;;;;;8.78;68.38;101144.34;111278;1243;23784;-77
2022/11/03 00:12:19;;;;;;;21.50;13.50;;;;;;;8.75;68.42;101146.63;111217;1245;22179;-78
2022/11/03 00:14:47;;;;;;;17.10;11.90;;;;;;;8.72;68.44;101146.52;111184;1242;22148;-78
2022/11/03 00:17:14;;;;;;;19.30;13.20;;;;;;;8.68;68.32;101149.03;111351;1242;22141;-78
2022/11/03 00:19:42;;;;;;;20.10;12.70;;;;;;;8.62;68.36;101148.60;111231;1243;22678;-77
2022/11/03 00:22:10;;;;;;;22.00;13.40;;;;;;;8.56;68.38;101150.25;111390;1242;24769;-77
2022/11/03 00:24:37;;;;;;;20.70;12.70;;;;;;;8.51;68.32;101147.39;111345;1242;22995;-79
2022/11/03 00:27:05;;;;;;;20.10;12.30;;;;;;;8.45;68.44;101144.20;111368;1242;23048;-77
2022/11/03 00:29:34;;;;;;;17.10;13.00;;;;;;;8.39;68.53;101142.72;111482;1242;21906;-78
2022/11/03 00:32:01;;;;;;;18.80;12.50;;;;;;;8.33;68.62;101137.08;111263;1243;22067;-77
2022/11/03 00:34:29;;;;;;;19.30;13.40;;;;;;;8.28;68.65;101143.92;111350;1242;21873;-77
2022/11/03 00:37:02;;;;;;;22.60;13.10;;;;;;;8.23;68.74;101152.65;111304;1242;23647;-76
2022/11/03 00:39:30;;;;;;;22.70;13.10;;;;;;;8.18;68.77;101150.30;111325;1245;21912;-77
2022/11/03 00:41:58;;;;;;;19.60;11.70;;;;;;;8.14;68.83;101146.55;111371;1243;22473;-77
2022/11/03 00:44:26;;;;;;;19.70;13.40;;;;;;;8.11;68.95;101142.61;111556;1242;22328;-78
2022/11/03 00:46:54;;;;;;;20.30;12.00;;;;;;;8.08;69.10;101145.09;111008;1249;22557;-77
2022/11/03 00:49:21;;;;;;;21.50;13.80;;;;;;;8.06;69.18;101146.85;110929;1248;23029;-78
2022/11/03 00:51:49;;;;;;;17.20;12.30;;;;;;;8.03;69.17;101144.98;110947;1249;21984;-78
2022/11/03 00:54:17;;;;;;;18.30;12.80;;;;;;;8.00;69.22;101147.64;110925;1248;23555;-78
2022/11/03 00:56:44;;;;;;;28.00;13.20;;;;;;;7.97;69.25;101151.48;110863;1251;23206;-78
2022/11/03 00:59:12;;;;;;;21.30;13.40;;;;;;;7.94;69.25;101146.67;110898;1248;23652;-78
2022/11/03 01:01:43;;;;;;;18.00;13.00;;;;;;;7.91;69.45;101142.72;110859;1251;23036;-78
2022/11/03 01:07:05;;;;;;;21.50;12.50;;;;;;;7.86;69.69;101150.77;111402;1243;23611;-78
2022/11/03 01:09:40;;;;;;;21.20;12.70;;;;;;;7.85;69.79;101146.81;111417;1243;21911;-77
2022/11/03 01:12:29;;;;;;;17.20;12.40;;;;;;;7.84;69.93;101146.98;111313;1242;23580;-77
2022/11/03 01:14:57;;;;;;;21.20;12.70;;;;;;;7.83;69.89;101148.73;111281;1243;21906;-77
2022/11/03 01:17:27;;;;;;;21.50;12.50;;;;;;;7.82;70.00;101147.88;110887;1249;22157;-76
2022/11/03 01:19:55;;;;;;;18.80;13.00;;;;;;;7.81;69.98;101145.81;110965;1250;23601;-77
2022/11/03 01:22:24;;;;;;;18.70;12.10;;;;;;;7.82;70.07;101148.91;110856;1248;21916;-77
2022/11/03 01:24:52;;;;;;;22.90;13.50;;;;;;;7.82;70.12;101149.44;110863;1248;21909;-77
2022/11/03 01:27:24;;;;;;;21.80;13.10;;;;;;;7.81;70.08;101147.38;110836;1249;21920;-76
2022/11/03 01:29:52;;;;;;;22.90;13.00;;;;;;;7.79;70.03;101145.32;111021;1248;23743;-77
2022/11/03 01:32:19;;;;;;;17.60;12.60;;;;;;;7.78;70.00;101145.52;110673;1248;21918;-78
2022/11/03 01:34:47;;;;;;;18.40;12.40;;;;;;;7.75;69.87;101143.30;110913;1243;21913;-76
2022/11/03 01:37:14;;;;;;;18.80;12.10;;;;;;;7.71;69.89;101142.50;111188;1247;23061;-77
2022/11/03 01:39:42;;;;;;;21.60;15.50;;;;;;;7.67;69.87;101139.95;111169;1247;21952;-77
2022/11/03 01:42:13;;;;;;;19.00;12.50;;;;;;;7.63;69.89;101135.31;111214;1243;21905;-77
2022/11/03 01:44:47;;;;;;;16.60;11.90;;;;;;;7.59;69.94;101133.63;111213;1245;21915;-77
2022/11/03 01:47:21;;;;;;;20.20;13.10;;;;;;;7.56;70.00;101133.67;111122;1242;23647;-77
2022/11/03 01:50:17;;;;;;;20.90;13.20;;;;;;;7.52;70.09;101130.60;111456;1242;21912;-78
2022/11/03 01:52:57;;;;;;;18.70;12.70;;;;;;;7.48;70.17;101132.23;111306;1245;21916;-77
2022/11/03 01:55:31;;;;;;;23.60;12.70;;;;;;;7.44;70.13;101137.63;111300;1243;22710;-77
2022/11/03 01:58:12;;;;;;;27.00;17.70;;;;;;;7.41;70.22;101139.22;111324;1244;21976;-77
2022/11/03 02:00:46;;;;;;;33.30;22.80;;;;;;;7.38;70.24;101133.20;111299;1246;21901;-77
2022/11/03 02:03:15;;;;;;;22.30;15.00;;;;;;;7.35;70.26;101133.41;111599;1237;21958;-77
2022/11/03 02:05:48;;;;;;;20.90;13.70;;;;;;;7.32;70.33;101129.64;111334;1245;22136;-78
2022/11/03 02:08:25;;;;;;;18.60;12.20;;;;;;;7.28;70.32;101134.70;111510;1243;21906;-76
2022/11/03 02:10:52;;;;;;;20.50;14.30;;;;;;;7.25;70.33;101135.09;111479;1241;21910;-77
2022/11/03 02:13:25;;;;;;;23.30;15.30;;;;;;;7.22;70.38;101134.77;111369;1243;21902;-77
2022/11/03 02:15:59;;;;;;;21.60;15.40;;;;;;;7.19;70.46;101134.47;111352;1245;24329;-76
2022/11/03 02:18:33;;;;;;;24.80;16.00;;;;;;;7.16;70.42;101132.08;111377;1246;23597;-76
2022/11/03 02:21:41;;;;;;;29.80;17.80;;;;;;;7.11;70.43;101127.45;111388;1242;21906;-77
2022/11/03 02:24:23;;;;;;;25.10;18.30;;;;;;;7.04;70.42;101127.70;111380;1246;21921;-75
2022/11/03 02:26:55;;;;;;;29.80;19.80;;;;;;;6.99;70.53;101122.22;111557;1242;22148;-77
2022/11/03 02:29:23;;;;;;;38.80;25.30;;;;;;;6.95;70.43;101120.88;111425;1246;21954;-77
2022/11/03 02:32:05;;;;;;;32.60;24.30;;;;;;;6.93;70.64;101118.98;111409;1243;22354;-77
2022/11/03 02:34:55;;;;;;;33.40;24.50;;;;;;;6.88;70.62;101116.27;111371;1244;21963;-77
2022/11/03 02:37:28;;;;;;;38.10;24.40;;;;;;;6.83;70.50;101118.40;111380;1245;21942;-77
2022/11/03 02:40:24;;;;;;;43.90;26.20;;;;;;;6.78;70.57;101117.93;111367;1243;22353;-77
2022/11/03 02:42:52;;;;;;;33.00;24.00;;;;;;;6.73;70.76;101117.65;110828;1252;23582;-78
2022/11/03 02:45:25;;;;;;;34.10;24.10;;;;;;;6.70;70.83;101121.46;110904;1251;21926;-77
2022/11/03 02:48:00;;;;;;;33.40;23.40;;;;;;;6.68;70.87;101124.61;110840;1250;21924;-78
2022/11/03 02:50:31;;;;;;;34.50;23.30;;;;;;;6.65;70.81;101125.50;110995;1248;21941;-77
2022/11/03 02:53:00;;;;;;;34.20;23.20;;;;;;;6.62;70.89;101128.12;110712;1248;21910;-78
2022/11/03 02:55:52;;;;;;;33.40;25.50;;;;;;;6.60;70.99;101127.95;110884;1248;21923;-77
2022/11/03 02:58:47;;;;;;;34.00;24.80;;;;;;;6.56;71.10;101127.48;110973;1249;23273;-77
2022/11/03 03:01:26;;;;;;;31.10;23.70;;;;;;;6.52;71.27;101122.50;111211;1245;21909;-77
2022/11/03 03:04:03;;;;;;;32.90;25.70;;;;;;;6.51;71.43;101119.91;111471;1246;23617;-75
2022/11/03 03:06:36;;;;;;;42.90;33.60;;;;;;;6.51;71.45;101115.95;111422;1245;22743;-74
2022/11/03 03:09:09;;;;;;;50.90;37.90;;;;;;;6.49;71.41;101114.92;111718;1243;21904;-74
2022/11/03 03:11:42;;;;;;;44.70;37.10;;;;;;;6.46;71.50;101113.73;111567;1245;21930;-77
2022/11/03 03:14:31;;;;;;;47.10;37.20;;;;;;;6.43;71.55;101110.30;111299;1246;22679;-78
2022/11/03 03:17:24;;;;;;;48.00;34.70;;;;;;;6.38;71.60;101109.83;111344;1246;23046;-77
2022/11/03 03:20:12;;;;;;;48.30;39.20;;;;;;;6.34;71.65;101111.23;111387;1245;23686;-77
2022/11/03 03:23:20;;;;;;;46.70;38.40;;;;;;;6.28;71.74;101108.69;111480;1245;24285;-77
2022/11/03 03:26:04;;;;;;;46.10;38.60;;;;;;;6.22;71.88;101106.66;111308;1245;21997;-77
2022/11/03 03:28:39;;;;;;;45.00;38.70;;;;;;;6.18;72.04;101109.64;111469;1245;23541;-77
2022/11/03 03:31:12;;;;;;;44.00;36.80;;;;;;;6.16;72.17;101106.54;111451;1240;23757;-77
2022/11/03 03:33:43;;;;;;;48.90;41.20;;;;;;;6.15;72.10;101108.45;111113;1244;23714;-77
2022/11/03 03:36:18;;;;;;;55.30;45.00;;;;;;;6.12;72.09;101104.16;111350;1247;21905;-78
2022/11/03 03:38:59;;;;;;;54.80;44.40;;;;;;;6.04;72.10;101102.98;111437;1246;23864;-77
2022/11/03 03:41:31;;;;;;;53.00;41.20;;;;;;;5.98;72.24;101105.27;111558;1243;21918;-78
2022/11/03 03:44:04;;;;;;;48.10;39.80;;;;;;;5.95;72.34;101105.28;111591;1245;21892;-78
2022/11/03 03:46:49;;;;;;;48.20;38.90;;;;;;;5.93;72.47;101100.80;111462;1245;21910;-77
2022/11/03 03:49:17;;;;;;;61.60;45.30;;;;;;;5.94;72.77;101098.04;111457;1246;23658;-77
2022/11/03 03:51:47;;;;;;;64.70;50.70;;;;;;;5.97;72.86;101100.27;111407;1243;21909;-77
2022/11/03 03:54:14;;;;;;;56.50;46.60;;;;;;;5.99;72.89;101101.48;111390;1247;23546;-77
2022/11/03 03:57:04;;;;;;;58.70;46.30;;;;;;;5.99;72.87;101100.79;111447;1247;21910;-77
2022/11/03 03:59:32;;;;;;;66.50;47.80;;;;;;;5.96;72.82;101097.84;111456;1245;21905;-77
2022/11/03 04:01:59;;;;;;;64.60;49.90;;;;;;;5.94;72.75;101097.68;111270;1245;21910;-76
2022/11/03 04:04:27;;;;;;;64.00;50.00;;;;;;;5.92;72.69;101092.34;111214;1245;21906;-76
2022/11/03 04:09:58;;;;;;;78.30;60.00;;;;;;;5.77;72.81;101091.74;110726;1253;22158;-75
2022/11/03 04:23:34;;;;;;;59.50;51.00;;;;;;;5.66;73.43;101095.95;110548;1254;21935;-76
2022/11/03 04:26:09;;;;;;;58.10;51.70;;;;;;;5.63;73.40;101093.72;110555;1257;23656;-77
2022/11/03 04:28:37;;;;;;;70.90;57.40;;;;;;;5.59;73.44;101097.36;110522;1254;23007;-76
2022/11/03 04:31:10;;;;;;;123.20;84.10;;;;;;;5.56;73.48;101098.60;110338;1253;22227;-76
2022/11/03 04:33:41;;;;;;;173.80;112.90;;;;;;;5.54;73.63;101097.23;110367;1257;22221;-77
2022/11/03 04:36:26;;;;;;;152.90;97.70;;;;;;;5.51;73.68;101092.23;110485;1257;22247;-77
2022/11/03 04:38:55;;;;;;;175.00;115.30;;;;;;;5.46;73.80;101090.02;110471;1257;21923;-76
2022/11/03 04:41:28;;;;;;;322.40;215.50;;;;;;;5.45;73.94;101089.52;110479;1253;21910;-77
2022/11/03 04:43:56;;;;;;;238.30;161.90;;;;;;;5.44;73.96;101084.16;110937;1246;21900;-77
2022/11/03 04:46:29;;;;;;;208.50;149.60;;;;;;;5.44;74.03;101078.27;111289;1241;21921;-77
2022/11/03 04:49:00;;;;;;;102.40;80.90;;;;;;;5.41;74.11;101080.20;111411;1246;21980;-77
2022/11/03 04:51:33;;;;;;;85.10;68.90;;;;;;;5.36;74.10;101080.22;111404;1246;21903;-76
2022/11/03 04:54:12;;;;;;;87.10;71.80;;;;;;;5.34;74.26;101079.71;111451;1246;23549;-76
2022/11/03 04:56:40;;;;;;;91.20;73.50;;;;;;;5.35;74.35;101077.45;111608;1247;21905;-77
2022/11/03 04:59:12;;;;;;;76.60;65.20;;;;;;;5.37;74.42;101072.27;111243;1247;21963;-77
2022/11/03 05:01:42;;;;;;;74.10;66.40;;;;;;;5.34;74.25;101072.46;111256;1243;23074;-77
2022/11/03 05:04:13;;;;;;;68.80;61.60;;;;;;;5.29;74.14;101074.20;111264;1245;23075;-77
2022/11/03 05:06:51;;;;;;;72.00;52.50;;;;;;;5.24;74.36;101078.20;111342;1246;21907;-77
2022/11/03 05:09:30;;;;;;;78.00;47.30;;;;;;;5.20;74.52;101076.84;111415;1245;22170;-76
2022/11/03 05:11:58;;;;;;;77.80;46.60;;;;;;;5.19;74.63;101075.63;111368;1246;21915;-77
2022/11/03 05:14:29;;;;;;;45.70;34.00;;;;;;;5.18;74.55;101073.74;111354;1245;23031;-76
2022/11/03 05:17:01;;;;;;;45.50;35.90;;;;;;;5.15;74.54;101075.48;111444;1246;21925;-77
2022/11/03 05:19:34;;;;;;;47.20;38.70;;;;;;;5.10;74.62;101075.67;111361;1247;21926;-77
2022/11/03 05:22:08;;;;;;;47.20;39.00;;;;;;;5.07;74.70;101076.88;111643;1245;22365;-76
2022/11/03 05:24:35;;;;;;;50.00;44.20;;;;;;;5.05;74.74;101072.74;111208;1246;22137;-77
2022/11/03 05:27:11;;;;;;;58.10;51.70;;;;;;;5.04;74.87;101072.92;111402;1246;23120;-78
2022/11/03 05:29:41;;;;;;;56.10;48.20;;;;;;;5.05;75.05;101068.27;111270;1246;22761;-77
2022/11/03 05:32:25;;;;;;;60.60;52.40;;;;;;;5.07;75.14;101069.30;111362;1245;23072;-77
2022/11/03 05:34:55;;;;;;;64.30;53.10;;;;;;;5.10;75.24;101073.08;110965;1251;21931;-77
2022/11/03 05:37:30;;;;;;;76.90;63.70;;;;;;;5.12;75.33;101075.84;110823;1253;22325;-76
2022/11/03 05:40:01;;;;;;;182.10;148.00;;;;;;;5.15;75.17;101076.33;110929;1250;21917;-75
2022/11/03 05:42:31;;;;;;;123.80;91.40;;;;;;;5.17;75.23;101077.70;110750;1253;21913;-76
2022/11/03 05:45:03;;;;;;;85.90;68.30;;;;;;;5.18;75.17;101080.29;110895;1246;21935;-76
2022/11/03 05:47:39;;;;;;;91.50;68.40;;;;;;;5.16;75.04;101079.78;110737;1252;24430;-77
2022/11/03 05:50:33;;;;;;;68.40;59.70;;;;;;;5.14;74.97;101078.76;110730;1252;21912;-77
2022/11/03 05:53:31;;;;;;;70.80;61.20;;;;;;;5.14;75.20;101081.70;111199;1245;23643;-77
2022/11/03 05:56:03;;;;;;;68.70;60.40;;;;;;;5.14;75.35;101078.92;111437;1245;22691;-77
2022/11/03 05:58:42;;;;;;;58.30;51.70;;;;;;;5.16;75.34;101075.13;111145;1246;24101;-77
2022/11/03 06:01:22;;;;;;;52.40;44.30;;;;;;;5.13;75.17;101074.97;111563;1243;21900;-77
2022/11/03 06:03:50;;;;;;;66.20;41.90;;;;;;;5.08;75.17;101077.57;111436;1247;21913;-77
2022/11/03 06:06:37;;;;;;;71.80;45.40;;;;;;;5.07;75.23;101083.61;111414;1247;21925;-77
2022/11/03 06:09:17;;;;;;;86.90;49.40;;;;;;;5.08;75.52;101077.58;111413;1245;23028;-77
2022/11/03 06:11:45;;;;;;;76.40;41.40;;;;;;;5.13;75.51;101077.04;111285;1247;23779;-77
2022/11/03 06:14:27;;;;;;;69.20;40.20;;;;;;;5.19;75.43;101083.40;111510;1246;23123;-76
2022/11/03 06:17:09;;;;;;;62.60;34.70;;;;;;;5.23;75.49;101082.88;111373;1245;21928;-77
2022/11/03 06:19:46;;;;;;;49.60;35.70;;;;;;;5.26;75.54;101081.98;111415;1245;21882;-77
2022/11/03 06:22:22;;;;;;;50.10;37.60;;;;;;;5.24;75.12;101086.66;111319;1245;21913;-76
2022/11/03 06:24:57;;;;;;;42.70;31.10;;;;;;;5.18;75.09;101090.48;111410;1243;21912;-76
2022/11/03 06:27:30;;;;;;;42.80;27.50;;;;;;;5.16;75.19;101096.18;111308;1241;21927;-78
2022/11/03 06:30:28;;;;;;;42.80;25.80;;;;;;;5.17;75.31;101095.14;111326;1246;23585;-77
2022/11/03 06:33:35;;;;;;;40.10;26.80;;;;;;;5.17;75.38;101097.91;110993;1251;22790;-78
2022/11/03 06:36:17;;;;;;;32.30;23.20;;;;;;;5.19;75.53;101097.36;110142;1259;22007;-77
2022/11/03 06:38:59;;;;;;;31.80;21.50;;;;;;;5.20;75.41;101100.30;109764;1263;21929;-77
2022/11/03 06:41:34;;;;;;;34.40;20.40;;;;;;;5.18;75.33;101102.21;109750;1260;21952;-77
2022/11/03 06:44:27;;;;;;;36.60;22.20;;;;;;;5.19;75.39;101109.80;109858;1263;21932;-78
2022/11/03 06:47:00;;;;;;;33.40;21.80;;;;;;;5.20;75.58;101104.63;109798;1263;22031;-77
2022/11/03 06:49:35;;;;;;;32.80;21.90;;;;;;;5.23;75.67;101104.45;109645;1262;21931;-78
2022/11/03 06:52:38;;;;;;;29.30;21.70;;;;;;;5.27;75.68;101104.59;109603;1263;22230;-79
2022/11/03 06:55:06;;;;;;;30.90;21.10;;;;;;;5.30;75.64;101105.63;109903;1263;22262;-79
2022/11/03 06:57:45;;;;;;;35.20;25.30;;;;;;;5.32;75.58;101106.29;110372;1258;22346;-78
2022/11/03 07:00:27;;;;;;;39.40;29.30;;;;;;;5.31;75.48;101104.41;110362;1257;23915;-78
2022/11/03 07:03:25;;;;;;;41.20;32.00;;;;;;;5.29;75.57;101103.71;110450;1257;22870;-78
2022/11/03 07:06:16;;;;;;;40.60;29.70;;;;;;;5.32;75.78;101101.65;110170;1260;22813;-78
2022/11/03 07:08:48;;;;;;;34.00;28.40;;;;;;;5.37;75.90;101096.62;109632;1263;21935;-77
2022/11/03 07:11:22;;;;;;;;;;;;;;;5.41;75.89;101096.25;109937;1262;22846;-77
2022/11/03 07:14:28;;;;;;;36.60;25.50;;;;;;;5.37;76.04;101097.30;110527;1257;21979;-80
2022/11/03 07:17:13;;;;;;;34.00;23.60;;;;;;;5.40;76.18;101097.12;109954;1265;22024;-78
2022/11/03 07:19:45;;;;;;;30.80;21.50;;;;;;;5.49;76.37;101095.52;109592;1264;21930;-83
2022/11/03 07:22:32;;;;;;;35.90;23.50;;;;;;;5.59;76.28;101094.60;109667;1264;22575;-80
2022/11/03 07:25:02;;;;;;;37.60;24.40;;;;;;;5.69;76.40;101091.10;110266;1260;21872;-80
2022/11/03 07:27:36;;;;;;;51.70;31.60;;;;;;;5.83;76.65;101086.52;109984;1257;22091;-81
2022/11/03 07:30:07;;;;;;;48.20;30.90;;;;;;;5.96;76.37;101083.70;110383;1255;21930;-81
2022/11/03 07:32:38;;;;;;;52.60;30.70;;;;;;;6.06;76.41;101079.31;110942;1255;21924;-77
2022/11/03 07:35:50;;;;;;;40.30;28.10;;;;;;;6.22;76.43;101076.95;110575;1253;21937;-78
2022/11/03 07:38:41;;;;;;;36.90;23.10;;;;;;;6.36;76.27;101076.81;110725;1251;21949;-77
2022/11/03 07:41:18;;;;;;;34.40;22.60;;;;;;;6.46;75.89;101073.10;110594;1253;23485;-77
2022/11/03 07:43:57;;;;;;;28.00;19.50;;;;;;;6.52;75.78;101068.71;110578;1255;22223;-78
2022/11/03 07:46:26;;;;;;;25.30;17.70;;;;;;;6.59;75.70;101070.71;110699;1255;21960;-78
2022/11/03 07:48:57;;;;;;;25.40;19.00;;;;;;;6.71;75.75;101067.50;110614;1253;21930;-77
2022/11/03 07:51:53;;;;;;;22.70;17.00;;;;;;;6.84;75.60;101067.52;110321;1257;22019;-78
2022/11/03 07:54:33;;;;;;;33.60;20.10;;;;;;;7.00;75.70;101063.02;110981;1246;22343;-81
2022/11/03 07:57:22;;;;;;;24.30;16.60;;;;;;;7.17;75.58;101060.39;111140;1251;21903;-79
2022/11/03 08:00:20;;;;;;;23.30;17.40;;;;;;;7.40;75.70;101058.38;110554;1258;22152;-79
2022/11/03 08:02:58;;;;;;;24.80;19.30;;;;;;;7.66;75.81;101058.01;110350;1258;21922;-80
2022/11/03 08:05:29;;;;;;;26.80;18.20;;;;;;;7.89;75.03;101057.49;110540;1258;22363;-79
2022/11/03 08:07:57;;;;;;;29.80;20.70;;;;;;;8.09;74.88;101053.54;110513;1256;21941;-78
2022/11/03 08:10:25;;;;;;;28.90;20.00;;;;;;;8.28;74.42;101050.98;110597;1254;22709;-78
2022/11/03 08:12:55;;;;;;;27.70;19.70;;;;;;;8.44;73.91;101049.33;110794;1254;23069;-77
2022/11/03 08:15:23;;;;;;;27.60;18.10;;;;;;;8.59;73.50;101044.39;110814;1254;21932;-78
2022/11/03 08:17:51;;;;;;;18.70;14.50;;;;;;;8.72;72.71;101045.88;110893;1246;22882;-78
2022/11/03 08:20:27;;;;;;;24.20;16.00;;;;;;;8.84;72.44;101044.08;111439;1246;23359;-79
2022/11/03 08:22:56;;;;;;;21.00;15.70;;;;;;;8.99;72.34;101043.27;111419;1246;22397;-78
2022/11/03 08:25:58;;;;;;;22.40;15.90;;;;;;;9.15;71.91;101043.46;111419;1246;23576;-79
2022/11/03 08:28:29;;;;;;;20.70;15.10;;;;;;;9.27;71.49;101035.73;111409;1246;22857;-79
2022/11/03 08:31:03;;;;;;;23.40;16.10;;;;;;;9.41;71.21;101026.75;111401;1246;24439;-79
2022/11/03 08:33:40;;;;;;;22.20;16.00;;;;;;;9.53;70.78;101023.70;111355;1246;21952;-78
2022/11/03 08:36:09;;;;;;;23.00;18.50;;;;;;;9.64;70.26;101018.42;110948;1252;22022;-79
2022/11/03 08:38:37;;;;;;;28.10;20.00;;;;;;;9.74;69.83;101012.61;110861;1252;21913;-78
2022/11/03 08:41:26;;;;;;;28.00;21.50;;;;;;;9.85;69.61;101011.66;110860;1252;21928;-78
2022/11/03 08:43:54;;;;;;;34.90;24.90;;;;;;;9.98;69.34;101006.83;111043;1251;22819;-79
2022/11/03 08:46:22;;;;;;;30.00;22.50;;;;;;;10.10;69.02;101005.12;110834;1252;22698;-81
2022/11/03 08:48:56;;;;;;;25.10;17.40;;;;;;;10.21;68.63;101004.33;111057;1252;21933;-81
2022/11/03 08:51:24;;;;;;;27.30;20.70;;;;;;;10.33;68.19;101001.61;110315;1257;23864;-76
2022/11/03 08:53:55;;;;;;;35.00;20.10;;;;;;;10.45;67.78;100995.56;110570;1254;23687;-77
2022/11/03 08:56:23;;;;;;;22.80;16.40;;;;;;;10.53;67.00;100991.17;110682;1252;21986;-77
2022/11/03 08:58:51;;;;;;;19.90;15.50;;;;;;;10.60;66.63;100985.23;110663;1254;21964;-78
2022/11/03 09:01:19;;;;;;;19.90;14.50;;;;;;;10.63;65.79;100983.92;110794;1253;22264;-79
2022/11/03 09:03:51;;;;;;;18.00;13.10;;;;;;;10.62;65.46;100977.52;110937;1254;21967;-78
2022/11/03 09:06:19;;;;;;;21.40;12.00;;;;;;;10.63;65.32;100978.52;110363;1258;21976;-79
2022/11/03 09:08:50;;;;;;;20.70;12.80;;;;;;;10.63;64.87;100975.57;110432;1255;23773;-80
2022/11/03 09:11:38;;;;;;;18.50;11.00;;;;;;;10.63;64.86;100971.22;111127;1250;22074;-78
2022/11/03 09:14:06;;;;;;;17.30;10.80;;;;;;;10.68;64.45;100969.67;110952;1239;21935;-81
2022/11/03 09:16:34;;;;;;;25.20;11.10;;;;;;;10.78;64.51;100967.66;111111;1253;21910;-81
2022/11/03 09:19:06;;;;;;;17.30;10.60;;;;;;;10.90;64.26;100966.11;111214;1252;21932;-80
2022/11/03 09:21:39;;;;;;;20.10;10.10;;;;;;;11.02;64.03;100964.50;111121;1252;22695;-83
2022/11/03 09:24:09;;;;;;;17.10;9.90;;;;;;;11.17;63.89;100959.36;110281;1246;1172420;-82
2022/11/03 09:26:39;;;;;;;15.50;9.60;;;;;;;11.32;63.24;100951.92;111659;1245;21911;-80
2022/11/03 09:29:11;;;;;;;16.40;9.50;;;;;;;11.45;62.69;100951.54;111122;1252;22146;-84
2022/11/03 09:31:48;;;;;;;17.60;9.80;;;;;;;11.56;62.22;100947.86;110989;1250;21924;-84
2022/11/03 09:34:40;;;;;;;17.70;9.90;;;;;;;11.64;61.92;100939.42;110897;1254;23079;-81
2022/11/03 09:37:15;;;;;;;18.20;9.00;;;;;;;11.77;61.47;100937.93;110944;1253;21928;-81
2022/11/03 09:39:43;;;;;;;16.00;9.40;;;;;;;11.91;61.30;100935.77;110941;1252;21922;-82
2022/11/03 09:42:12;;;;;;;18.40;9.10;;;;;;;12.04;60.83;100933.22;110960;1253;21920;-81
2022/11/03 09:44:40;;;;;;;13.00;8.70;;;;;;;12.17;60.72;100930.66;110948;1253;23191;-81
2022/11/03 09:47:26;;;;;;;11.80;7.70;;;;;;;12.29;59.65;100925.00;111283;1243;21896;-82
2022/11/03 09:49:56;;;;;;;13.50;7.60;;;;;;;12.39;58.98;100924.11;111702;1242;21918;-80
2022/11/03 09:52:30;;;;;;;31.90;15.30;;;;;;;12.56;58.92;100914.44;111704;1243;21899;-80
2022/11/03 09:54:58;;;;;;;17.70;8.90;;;;;;;12.71;58.29;100916.30;111651;1242;21909;-82
2022/11/03 09:57:30;;;;;;;16.70;9.30;;;;;;;12.85;57.96;100913.69;111652;1242;23067;-82
2022/11/03 10:00:03;;;;;;;13.30;8.00;;;;;;;12.97;57.18;100910.43;111682;1243;21934;-84
2022/11/03 10:02:42;;;;;;;14.10;9.00;;;;;;;13.03;56.66;100909.17;111128;1251;21915;-82
2022/11/03 10:05:30;;;;;;;28.50;13.50;;;;;;;13.11;56.18;100906.56;111323;1251;23014;-80
2022/11/03 10:09:00;;;;;;;16.60;9.50;;;;;;;13.28;56.11;100908.90;110825;1249;21915;-79
2022/11/03 10:12:03;;;;;;;19.20;11.50;;;;;;;13.46;55.66;100910.81;111313;1249;22082;-81
2022/11/03 10:14:36;;;;;;;16.60;10.00;;;;;;;13.53;54.95;100909.48;111044;1249;21931;-81
2022/11/03 10:17:33;;;;;;;25.50;12.10;;;;;;;13.54;54.89;100907.69;110994;1250;21971;-81
2022/11/03 10:20:41;;;;;;;15.50;10.60;;;;;;;13.56;54.58;100903.40;111225;1245;22494;-80
2022/11/03 10:23:33;;;;;;;17.30;9.80;;;;;;;13.54;54.49;100897.02;111731;1243;21925;-80
2022/11/03 10:26:34;;;;;;;17.10;11.60;;;;;;;13.62;54.61;100898.93;111615;1245;21910;-80
2022/11/03 10:29:23;;;;;;;18.80;10.60;;;;;;;13.78;54.44;100895.67;111630;1243;21873;-80
2022/11/03 10:32:00;;;;;;;25.50;13.20;;;;;;;13.89;54.37;100895.19;111732;1242;21922;-80
2022/11/03 10:34:45;;;;;;;17.60;10.80;;;;;;;14.06;54.50;100888.70;111639;1241;21954;-80
2022/11/03 10:37:44;;;;;;;;;;;;;;;;;;;;;
2022/11/03 10:40:37;;;;;;;20.20;12.10;;;;;;;14.33;53.72;100891.19;111293;1248;23681;-81
2022/11/03 10:43:26;;;;;;;22.90;16.50;;;;;;;14.38;53.08;100889.20;111019;1251;21978;-81
2022/11/03 10:46:18;;;;;;;17.20;12.40;;;;;;;14.40;52.59;100884.54;111141;1250;22379;-81
2022/11/03 10:49:18;;;;;;;19.40;10.80;;;;;;;14.35;52.46;100880.56;111179;1249;23646;-79
2022/11/03 10:51:50;;;;;;;21.30;13.20;;;;;;;14.35;52.76;100876.20;110544;1254;21935;-78
2022/11/03 10:54:25;;;;;;;20.40;10.60;;;;;;;14.32;52.55;100872.14;110669;1254;21941;-79
2022/11/03 10:56:53;;;;;;;11.60;6.90;;;;;;;14.29;52.86;100869.80;110845;1253;22713;-79
2022/11/03 10:59:33;;;;;;;16.00;9.00;;;;;;;14.26;52.34;100873.27;111002;1247;21934;-79
2022/11/03 11:02:30;;;;;;;17.10;9.50;;;;;;;14.21;52.31;100869.83;111181;1247;23027;-79
2022/11/03 11:05:01;;;;;;;14.80;7.90;;;;;;;14.24;52.69;100867.42;111173;1248;22862;-79
2022/11/03 11:07:39;;;;;;;20.80;9.90;;;;;;;14.31;52.61;100866.24;111223;1251;23833;-79
2022/11/03 11:10:21;;;;;;;17.60;10.40;;;;;;;14.31;52.46;100864.29;111162;1250;21905;-79
2022/11/03 11:13:20;;;;;;;17.60;13.40;;;;;;;14.25;52.26;100852.83;111258;1246;22677;-79
2022/11/03 11:15:58;;;;;;;14.60;6.90;;;;;;;14.19;52.32;100851.38;111141;1243;22384;-80
2022/11/03 11:18:29;;;;;;;11.60;6.90;;;;;;;14.12;52.07;100849.03;111666;1244;22229;-79
2022/11/03 11:21:18;;;;;;;13.90;7.50;;;;;;;13.99;51.84;100849.25;111802;1242;21898;-79
2022/11/03 11:23:47;;;;;;;11.40;5.90;;;;;;;13.85;51.79;100843.59;111622;1244;21899;-79
2022/11/03 11:26:25;;;;;;;15.30;6.90;;;;;;;13.78;51.93;100840.02;111297;1243;21922;-80
2022/11/03 11:29:08;;;;;;;18.00;8.30;;;;;;;13.74;52.09;100834.10;111318;1249;22825;-81
2022/11/03 11:31:44;;;;;;;13.20;6.20;;;;;;;13.68;52.23;100826.46;111052;1250;23006;-79
2022/11/03 11:34:18;;;;;;;13.70;5.80;;;;;;;13.63;52.23;100820.03;110951;1248;22949;-79
2022/11/03 11:36:58;;;;;;;8.80;4.80;;;;;;;13.57;52.21;100814.17;111040;1246;21926;-79
2022/11/03 11:39:30;;;;;;;17.20;7.50;;;;;;;13.53;52.34;100809.29;111015;1248;21933;-79
2022/11/03 11:42:20;;;;;;;10.50;6.80;;;;;;;13.51;52.40;100799.73;111322;1247;23038;-80
2022/11/03 11:45:01;;;;;;;14.00;5.50;;;;;;;13.50;52.60;100795.78;110882;1249;21922;-79
2022/11/03 11:47:47;;;;;;;12.70;7.00;;;;;;;13.52;52.70;100789.23;111177;1243;23588;-79
2022/11/03 11:50:28;;;;;;;8.00;4.70;;;;;;;13.55;52.64;100781.38;111440;1242;23645;-78
2022/11/03 11:53:09;;;;;;;10.80;5.50;;;;;;;13.50;52.07;100776.36;111416;1243;21919;-79
2022/11/03 11:56:00;;;;;;;12.40;4.80;;;;;;;13.46;51.76;100767.43;111263;1242;22208;-80
2022/11/03 11:58:50;;;;;;;9.80;4.50;;;;;;;13.44;51.90;100761.06;111480;1243;21930;-79
2022/11/03 12:01:34;;;;;;;10.40;5.40;;;;;;;13.44;51.98;100753.90;111708;1243;21917;-80
2022/11/03 12:04:19;;;;;;;10.80;4.60;;;;;;;13.43;51.84;100751.65;111252;1243;22376;-82
2022/11/03 12:06:47;;;;;;;9.90;4.70;;;;;;;13.42;51.91;100742.98;111199;1242;23578;-80
2022/11/03 12:09:20;;;;;;;9.90;4.10;;;;;;;13.42;51.61;100745.60;111683;1243;21915;-80
2022/11/03 12:11:59;;;;;;;7.20;3.70;;;;;;;13.40;51.24;100744.09;111634;1242;22028;-81